KLIC/LIC METAR and TAF weather

Enter ICAO airport designator
Station Type Date Time Source
KLIC METAR 2021/05/13 06:11 UTC NOAA

KLIC 130611Z AUTO 16007KT 6SM BR FEW007 04/03 A3032 RMK AO2 T00440033


Station Type Date Time Source
KLIC Decoded METAR 2021/05/13 06:11 UTC NOAA

LIMON MUNICIPAL AIRPORT, CO, United States (KLIC) 39-16N 103-40W 1630M
May 13, 2021 - 02:11 AM EDT / 2021.05.13 0611 UTC
Wind: from the SSE (160 degrees) at 8 MPH (7 KT):0
Visibility: 6 mile(s):0
Sky conditions: mostly clear
Weather: mist
Temperature: 39.9 F (4.4 C)
Dew Point: 37.9 F (3.3 C)
Relative Humidity: 92%
Pressure (altimeter): 30.32 in. Hg (1026 hPa)
ob: KLIC 130611Z AUTO 16007KT 6SM BR FEW007 04/03 A3032 RMK AO2 T00440033
cycle: 6

Station Type Date Time Source
KLIC TAF UTC NOAA

Error!

Example: see airport list